Accueil
METAR-TAF:

METAR-TAF

Aéroports :

Army Air Corps Middle Wallop

Middle Wallop, Angleterre

latitude: 51-09N, longitude: 001-34W, altitude: 91 m

Observation

Le bulletin a été fait il y a 42 minutes, à 18:50 UTC
Vent 4 kt de nord
Température 12°C
Humidité 76%
Pression 1028 hPa
Visibilité 10 km ou plus

METAR: EGVP 191850Z AUTO 35004KT 9999 // NCD 12/08 Q1028

Heure: 20:32 (19:32 UTC)

Prévision

Le bulletin a été fait il y a 8 heures et 57 minutes, à 10:35 UTC
Prévision valable du 19 à 12 UTC au 19 à 17 UTC
Vent 4 kt de direction variable
Visibilité 10 km ou plus
Quelques nuages à une hauteur de 2500 ft

TAF: EGVP 191035Z 1912/1917 VRB04KT 9999 FEW025

Observations et prévisions météorologiques de plus de 4000 aéroports (messages METAR et TAF).

Les stations disponibles sont représentées par des disques jaunes et rouges sur la carte.

Passer la souris dessus pour voir le nom de la station.

Cliquer dessus pour voir les observations et prévisions météorologiques.

Pour changer de carte: cliquez sur les boutons verts avec une croix noire pour zoomer, sur le bouton vert avec un tiret pour effectuer un zoom arrière, ou sur les flèches vertes pour les cartes adjacentes.


METAR-TAF: